createdAt,value
2019-05-30T00:01:41.016Z,16.32
2019-05-30T00:04:07.741Z,16.10
2019-05-30T00:06:34.515Z,16.05
2019-05-30T00:09:03.146Z,16.02
2019-05-30T00:11:30.146Z,16.10
2019-05-30T00:13:56.948Z,15.23
2019-05-30T00:16:23.633Z,15.08
2019-05-30T00:18:50.353Z,18.73
2019-05-30T00:21:17.325Z,15.70
2019-05-30T00:23:43.987Z,14.58
2019-05-30T00:26:10.656Z,15.05
2019-05-30T00:28:37.435Z,13.88
2019-05-30T00:31:05.212Z,11.57
2019-05-30T00:33:33.146Z,13.22
2019-05-30T00:35:59.952Z,12.68
2019-05-30T00:38:26.744Z,12.93
2019-05-30T00:40:53.480Z,14.45
2019-05-30T00:43:20.273Z,11.45
2019-05-30T00:45:47.246Z,13.58
2019-05-30T00:48:14.211Z,12.80
2019-05-30T00:50:40.954Z,12.35
2019-05-30T00:53:07.639Z,13.00
2019-05-30T00:55:34.450Z,13.05
2019-05-30T00:58:01.136Z,11.15
2019-05-30T01:00:42.654Z,14.45
2019-05-30T01:02:59.914Z,10.70
2019-05-30T01:05:27.299Z,15.18
2019-05-30T01:07:53.995Z,13.55
2019-05-30T01:10:20.959Z,10.78
2019-05-30T01:12:47.722Z,13.53
2019-05-30T01:15:15.742Z,13.68
2019-05-30T01:17:42.588Z,11.28
2019-05-30T01:20:09.408Z,12.33
2019-05-30T01:22:36.287Z,16.80
2019-05-30T01:25:07.622Z,14.47
2019-05-30T01:27:36.262Z,9.20
2019-05-30T01:30:08.072Z,14.35
2019-05-30T01:32:34.813Z,15.70
2019-05-30T01:35:02.083Z,13.30
2019-05-30T01:37:29.208Z,10.70
2019-05-30T01:39:56.007Z,12.35
2019-05-30T01:42:22.983Z,7.83
2019-05-30T01:44:49.744Z,7.30
2019-05-30T01:47:16.444Z,10.48
2019-05-30T01:49:43.227Z,12.82
2019-05-30T01:52:10.026Z,8.28
2019-05-30T01:54:36.787Z,11.80
2019-05-30T01:57:04.678Z,11.73
2019-05-30T01:59:31.545Z,12.23
2019-05-30T02:01:58.881Z,10.90
2019-05-30T02:04:26.903Z,14.45
2019-05-30T02:06:53.604Z,10.25
2019-05-30T02:09:20.308Z,15.00
2019-05-30T02:11:47.066Z,10.18
2019-05-30T02:14:13.788Z,7.20
2019-05-30T02:16:40.482Z,10.68
2019-05-30T02:19:07.950Z,10.38
2019-05-30T02:21:34.867Z,7.90
2019-05-30T02:24:01.844Z,9.98
2019-05-30T02:26:28.785Z,11.05
2019-05-30T02:28:55.541Z,8.90
2019-05-30T02:31:38.306Z,8.65
2019-05-30T02:33:50.872Z,7.45
2019-05-30T02:36:17.566Z,7.90
2019-05-30T02:38:44.299Z,9.10
2019-05-30T02:41:12.578Z,8.75
2019-05-30T02:43:39.502Z,10.93
2019-05-30T02:46:07.930Z,6.28
2019-05-30T02:48:35.013Z,8.33
2019-05-30T02:51:03.233Z,12.05
2019-05-30T02:53:30.167Z,11.05
2019-05-30T02:55:56.946Z,8.55
2019-05-30T02:58:23.707Z,7.58
2019-05-30T03:00:50.451Z,7.00
2019-05-30T03:03:17.148Z,10.75
2019-05-30T03:05:43.886Z,12.00
2019-05-30T03:08:13.948Z,10.90
2019-05-30T03:10:40.346Z,8.53
2019-05-30T03:13:08.299Z,8.05
2019-05-30T03:15:35.726Z,7.50
2019-05-30T03:18:04.482Z,8.13
2019-05-30T03:20:31.463Z,8.48
2019-05-30T03:22:58.264Z,7.35
2019-05-30T03:25:24.955Z,6.90
2019-05-30T03:27:52.126Z,7.58
2019-05-30T03:30:27.592Z,6.22
2019-05-30T03:33:05.902Z,9.05
2019-05-30T03:35:27.438Z,10.58
2019-05-30T03:37:45.545Z,9.43
2019-05-30T03:40:12.617Z,9.28
2019-05-30T03:42:40.552Z,9.58
2019-05-30T03:45:10.763Z,7.42
2019-05-30T03:47:40.188Z,9.33
2019-05-30T03:50:11.955Z,7.28
2019-05-30T03:52:38.463Z,5.15
2019-05-30T03:55:09.225Z,7.28
2019-05-30T03:57:41.896Z,7.15
2019-05-30T04:00:18.562Z,9.55
2019-05-30T04:02:58.457Z,7.83
2019-05-30T04:05:29.868Z,7.75
2019-05-30T04:07:58.250Z,9.20
2019-05-30T04:10:28.646Z,7.40
2019-05-30T04:13:19.198Z,6.22
2019-05-30T04:15:46.041Z,9.18
2019-05-30T04:18:15.820Z,8.30
2019-05-30T04:20:41.746Z,6.17
2019-05-30T04:23:10.380Z,8.68
2019-05-30T04:25:37.096Z,9.55
2019-05-30T04:28:03.909Z,10.78
2019-05-30T04:30:30.636Z,13.70
2019-05-30T04:33:16.107Z,8.48
2019-05-30T04:35:26.063Z,10.43
2019-05-30T04:37:52.762Z,8.18
2019-05-30T04:40:19.801Z,9.28
2019-05-30T04:42:46.690Z,4.30
2019-05-30T04:45:13.751Z,5.90
2019-05-30T04:47:40.526Z,9.63
2019-05-30T04:50:09.971Z,7.35
2019-05-30T04:52:36.703Z,8.68
2019-05-30T04:55:07.271Z,7.33
2019-05-30T04:57:34.004Z,11.15
2019-05-30T05:00:00.694Z,4.97
2019-05-30T05:02:27.410Z,8.33
2019-05-30T05:04:54.120Z,6.42
2019-05-30T05:07:22.076Z,6.95
2019-05-30T05:09:49.064Z,7.92
2019-05-30T05:12:16.099Z,6.40
2019-05-30T05:14:42.944Z,4.47
2019-05-30T05:17:09.763Z,8.58
2019-05-30T05:19:36.513Z,5.10
2019-05-30T05:22:03.321Z,5.47
2019-05-30T05:24:31.163Z,7.60
2019-05-30T05:26:57.959Z,9.43
2019-05-30T05:29:24.628Z,5.65
2019-05-30T05:31:51.385Z,7.33
2019-05-30T05:34:18.543Z,5.92
2019-05-30T05:36:45.415Z,7.67
2019-05-30T05:39:12.087Z,4.03
2019-05-30T05:41:38.850Z,6.45
2019-05-30T05:44:05.518Z,7.08
2019-05-30T05:46:32.268Z,8.08
2019-05-30T05:48:59.055Z,5.97
2019-05-30T05:51:25.990Z,6.87
2019-05-30T05:53:52.694Z,6.50
2019-05-30T05:56:19.462Z,6.05
2019-05-30T05:58:46.242Z,6.58
2019-05-30T06:01:13.004Z,8.25
2019-05-30T06:03:39.686Z,5.45
2019-05-30T06:06:06.438Z,4.20
2019-05-30T06:08:34.211Z,8.00
2019-05-30T06:11:01.022Z,6.95
2019-05-30T06:13:28.984Z,9.78
2019-05-30T06:15:55.907Z,9.65
2019-05-30T06:18:22.616Z,8.68
2019-05-30T06:20:49.398Z,7.37
2019-05-30T06:23:17.267Z,10.95
2019-05-30T06:25:44.690Z,8.15
2019-05-30T06:28:11.377Z,8.93
2019-05-30T06:30:38.103Z,3.52
2019-05-30T06:33:04.843Z,4.67
2019-05-30T06:35:31.580Z,5.55
2019-05-30T06:37:58.355Z,3.92
2019-05-30T06:40:25.552Z,4.08
2019-05-30T06:42:52.466Z,5.40
2019-05-30T06:45:20.898Z,7.60
2019-05-30T06:47:47.777Z,6.28
2019-05-30T06:50:14.467Z,6.67
2019-05-30T06:52:41.216Z,4.58
2019-05-30T06:55:08.406Z,4.10
2019-05-30T06:57:35.086Z,7.40
2019-05-30T07:00:03.933Z,7.08
2019-05-30T07:02:30.705Z,4.95
2019-05-30T07:04:58.278Z,3.90
2019-05-30T07:07:26.635Z,5.72
2019-05-30T07:09:53.763Z,4.17
2019-05-30T07:12:20.550Z,3.52
2019-05-30T07:14:47.235Z,8.38
2019-05-30T07:17:13.902Z,3.85
2019-05-30T07:19:40.638Z,3.45
2019-05-30T07:22:08.074Z,2.80
2019-05-30T07:24:35.256Z,1.77
2019-05-30T07:27:01.923Z,3.70
2019-05-30T07:29:29.771Z,2.47
2019-05-30T07:31:56.817Z,5.08
2019-05-30T07:34:23.945Z,6.92
2019-05-30T07:36:50.788Z,3.60
2019-05-30T07:39:17.512Z,4.62
2019-05-30T07:41:44.195Z,5.75
2019-05-30T07:44:10.962Z,3.65
2019-05-30T07:46:38.770Z,3.35
2019-05-30T07:49:05.466Z,3.75
2019-05-30T07:51:32.709Z,3.45
2019-05-30T07:53:59.700Z,5.10
2019-05-30T07:56:26.926Z,3.22
2019-05-30T07:58:53.835Z,2.90
2019-05-30T08:01:20.652Z,2.25
2019-05-30T08:03:48.604Z,4.03
2019-05-30T08:06:15.315Z,3.35
2019-05-30T08:08:41.991Z,3.27
2019-05-30T08:11:10.135Z,6.12
2019-05-30T08:13:37.355Z,3.12
2019-05-30T08:16:04.289Z,3.72
2019-05-30T08:18:31.664Z,3.33
2019-05-30T08:20:58.641Z,3.72
2019-05-30T08:23:25.381Z,2.72
2019-05-30T08:25:52.046Z,3.02
2019-05-30T08:28:18.742Z,1.75
2019-05-30T08:30:45.417Z,3.27
2019-05-30T08:33:12.227Z,2.45
2019-05-30T08:35:48.746Z,3.98
2019-05-30T08:38:07.509Z,2.87
2019-05-30T08:40:35.287Z,2.52
2019-05-30T08:43:02.342Z,2.33
2019-05-30T08:45:29.570Z,2.80
2019-05-30T08:47:56.534Z,3.27
2019-05-30T08:50:23.366Z,4.55
2019-05-30T08:52:50.041Z,3.47
2019-05-30T08:55:16.926Z,2.67
2019-05-30T08:57:43.764Z,5.12
2019-05-30T09:00:13.155Z,2.35
2019-05-30T09:02:40.929Z,3.12
2019-05-30T09:05:09.576Z,3.22
2019-05-30T09:07:36.571Z,4.78
2019-05-30T09:10:07.870Z,2.67
2019-05-30T09:12:37.557Z,4.35
2019-05-30T09:15:07.190Z,3.40
2019-05-30T09:17:33.927Z,5.65
2019-05-30T09:20:00.643Z,5.00
2019-05-30T09:22:27.341Z,4.97
2019-05-30T09:24:54.141Z,2.92
2019-05-30T09:27:20.933Z,3.72
2019-05-30T09:29:48.293Z,2.33
2019-05-30T09:32:15.333Z,2.25
2019-05-30T09:34:43.266Z,3.08
2019-05-30T09:37:10.470Z,3.90
2019-05-30T09:39:37.262Z,4.30
2019-05-30T09:42:04.077Z,5.42
2019-05-30T09:44:31.023Z,2.50
2019-05-30T09:46:58.949Z,5.90
2019-05-30T09:49:27.307Z,4.67
2019-05-30T09:51:54.611Z,4.62
2019-05-30T09:54:23.184Z,4.12
2019-05-30T09:56:50.975Z,7.30
2019-05-30T09:59:18.165Z,5.83
2019-05-30T10:01:46.071Z,3.33
2019-05-30T10:04:12.981Z,3.52
2019-05-30T10:06:40.672Z,4.42
2019-05-30T10:09:08.444Z,4.37
2019-05-30T10:11:35.273Z,6.95
2019-05-30T10:14:02.019Z,3.08
2019-05-30T10:16:28.817Z,3.55
2019-05-30T10:18:56.891Z,2.60
2019-05-30T10:21:23.841Z,6.95
2019-05-30T10:23:52.403Z,7.20
2019-05-30T10:26:19.160Z,5.28
2019-05-30T10:28:46.407Z,5.83
2019-05-30T10:31:14.464Z,2.90
2019-05-30T10:33:41.129Z,7.33
2019-05-30T10:36:07.795Z,7.67
2019-05-30T10:38:34.567Z,5.03
2019-05-30T10:41:01.233Z,5.47
2019-05-30T10:43:29.130Z,4.12
2019-05-30T10:45:55.859Z,3.20
2019-05-30T10:48:22.806Z,3.85
2019-05-30T10:50:50.513Z,3.12
2019-05-30T10:53:17.445Z,3.33
2019-05-30T10:55:45.285Z,2.27
2019-05-30T10:58:12.800Z,3.58
2019-05-30T11:00:47.258Z,3.42
2019-05-30T11:03:14.592Z,2.30
2019-05-30T11:05:47.066Z,3.80
2019-05-30T11:08:23.066Z,2.95
2019-05-30T11:10:50.641Z,6.00
2019-05-30T11:13:18.148Z,4.17
2019-05-30T11:15:44.816Z,2.58
2019-05-30T11:18:11.945Z,6.47
2019-05-30T11:20:38.607Z,2.92
2019-05-30T11:23:05.641Z,3.30
2019-05-30T11:25:32.297Z,2.90
2019-05-30T11:27:59.031Z,2.95
2019-05-30T11:30:26.905Z,4.50
2019-05-30T11:32:54.948Z,3.05
2019-05-30T11:35:21.995Z,3.58
2019-05-30T11:37:49.030Z,4.12
2019-05-30T11:40:16.234Z,5.78
2019-05-30T11:42:42.923Z,4.97
2019-05-30T11:45:09.980Z,5.87
2019-05-30T11:47:36.774Z,3.58
2019-05-30T11:50:06.759Z,3.45
2019-05-30T11:52:33.528Z,3.72
2019-05-30T11:55:00.397Z,5.95
2019-05-30T11:57:27.336Z,4.12
2019-05-30T11:59:54.295Z,4.53
2019-05-30T12:02:21.121Z,5.40
2019-05-30T12:04:47.776Z,5.30
2019-05-30T12:07:14.515Z,5.85
2019-05-30T12:09:41.196Z,7.37
2019-05-30T12:12:07.878Z,4.25
2019-05-30T12:14:35.033Z,8.03
2019-05-30T12:17:01.862Z,8.30
2019-05-30T12:19:28.536Z,6.70
2019-05-30T12:21:55.612Z,7.12
2019-05-30T12:24:22.423Z,5.20
2019-05-30T12:26:49.212Z,8.08
2019-05-30T12:29:15.907Z,8.50
2019-05-30T12:31:42.612Z,6.00
2019-05-30T12:34:09.331Z,7.87
2019-05-30T12:36:36.496Z,6.35
2019-05-30T12:39:05.358Z,9.00
2019-05-30T12:41:32.152Z,4.95
2019-05-30T12:43:59.206Z,5.72
2019-05-30T12:46:26.128Z,7.08
2019-05-30T12:48:53.306Z,8.08
2019-05-30T12:51:20.172Z,5.62
2019-05-30T12:53:46.877Z,7.08
2019-05-30T12:56:13.754Z,4.67
2019-05-30T12:58:40.434Z,6.42
2019-05-30T13:01:07.127Z,4.28
2019-05-30T13:03:33.901Z,4.85
2019-05-30T13:06:01.116Z,5.62
2019-05-30T13:08:28.194Z,5.08
2019-05-30T13:10:55.500Z,4.85
2019-05-30T13:13:22.619Z,5.92
2019-05-30T13:15:49.349Z,5.37
2019-05-30T13:18:16.120Z,4.83
2019-05-30T13:20:42.791Z,7.12
2019-05-30T13:23:09.573Z,4.20
2019-05-30T13:25:36.316Z,3.65
2019-05-30T13:28:06.363Z,4.95
2019-05-30T13:30:32.417Z,3.77
2019-05-30T13:32:59.189Z,6.53
2019-05-30T13:35:27.180Z,5.80
2019-05-30T13:37:53.910Z,7.00
2019-05-30T13:40:25.342Z,6.00
2019-05-30T13:42:49.431Z,5.42
2019-05-30T13:45:16.886Z,5.22
2019-05-30T13:47:43.566Z,9.48
2019-05-30T13:50:14.071Z,5.78
2019-05-30T13:52:40.196Z,7.17
2019-05-30T13:55:10.265Z,7.75
2019-05-30T13:57:37.121Z,5.03
2019-05-30T14:00:08.204Z,5.45
2019-05-30T14:02:36.657Z,5.55
2019-05-30T14:05:06.171Z,6.08
2019-05-30T14:07:33.388Z,6.37
2019-05-30T14:10:00.300Z,8.15
2019-05-30T14:12:27.267Z,4.83
2019-05-30T14:14:54.036Z,6.03
2019-05-30T14:17:20.806Z,5.87
2019-05-30T14:19:47.529Z,3.42
2019-05-30T14:22:14.288Z,5.53
2019-05-30T14:24:40.987Z,5.47
2019-05-30T14:27:07.750Z,6.35
2019-05-30T14:29:34.577Z,5.45
2019-05-30T14:32:03.456Z,8.30
2019-05-30T14:34:30.616Z,5.37
2019-05-30T14:36:57.476Z,3.90
2019-05-30T14:39:24.181Z,3.77
2019-05-30T14:41:50.854Z,5.10
2019-05-30T14:44:17.726Z,4.03
2019-05-30T14:46:44.499Z,5.10
2019-05-30T14:49:11.195Z,4.40
2019-05-30T14:51:37.978Z,4.85
2019-05-30T14:54:05.221Z,5.22
2019-05-30T14:56:32.059Z,9.33
2019-05-30T14:58:59.115Z,5.47
2019-05-30T15:01:25.868Z,6.47
2019-05-30T15:03:52.562Z,6.50
2019-05-30T15:06:19.547Z,6.50
2019-05-30T15:08:46.319Z,4.60
2019-05-30T15:11:13.771Z,5.92
2019-05-30T15:13:40.686Z,4.58
2019-05-30T15:16:07.465Z,5.30
2019-05-30T15:18:34.172Z,4.47
2019-05-30T15:21:00.913Z,5.30
2019-05-30T15:23:27.698Z,6.25
2019-05-30T15:25:54.469Z,5.78
2019-05-30T15:28:21.263Z,9.05
2019-05-30T15:30:47.941Z,6.45
2019-05-30T15:33:14.847Z,7.08
2019-05-30T15:35:41.592Z,6.70
2019-05-30T15:38:08.786Z,5.30
2019-05-30T15:40:35.666Z,6.37
2019-05-30T15:43:02.468Z,7.03
2019-05-30T15:45:29.250Z,7.72
2019-05-30T15:47:56.022Z,7.55
2019-05-30T15:50:23.016Z,6.53
2019-05-30T15:52:49.703Z,6.80
2019-05-30T15:55:17.450Z,7.33
2019-05-30T15:57:44.766Z,6.15
2019-05-30T16:00:14.086Z,5.25
2019-05-30T16:02:41.349Z,5.47
2019-05-30T16:05:08.811Z,8.63
2019-05-30T16:07:35.463Z,6.00
2019-05-30T16:10:04.498Z,8.80
2019-05-30T16:12:31.288Z,6.83
2019-05-30T16:14:57.969Z,7.20
2019-05-30T16:17:24.669Z,5.62
2019-05-30T16:19:51.407Z,7.80
2019-05-30T16:22:18.435Z,7.00
2019-05-30T16:24:45.213Z,4.08
2019-05-30T16:27:11.970Z,6.20
2019-05-30T16:29:38.696Z,4.72
2019-05-30T16:32:05.369Z,4.85
2019-05-30T16:34:32.929Z,6.47
2019-05-30T16:36:59.868Z,5.85
2019-05-30T16:39:26.651Z,6.08
2019-05-30T16:41:53.516Z,6.97
2019-05-30T16:44:20.500Z,6.95
2019-05-30T16:46:47.371Z,10.48
2019-05-30T16:49:14.394Z,6.80
2019-05-30T16:51:41.236Z,7.92
2019-05-30T16:54:07.917Z,9.63
2019-05-30T16:56:34.666Z,7.25
2019-05-30T16:59:01.388Z,5.83
2019-05-30T17:01:28.146Z,9.30
2019-05-30T17:03:54.963Z,7.15
2019-05-30T17:06:22.082Z,7.75
2019-05-30T17:08:49.217Z,7.60
2019-05-30T17:11:17.344Z,7.62
2019-05-30T17:13:44.292Z,9.78
2019-05-30T17:16:11.022Z,5.22
2019-05-30T17:18:37.978Z,11.48
2019-05-30T17:21:04.747Z,9.18
2019-05-30T17:23:31.445Z,8.90
2019-05-30T17:25:58.192Z,7.40
2019-05-30T17:28:24.911Z,9.55
2019-05-30T17:30:51.826Z,6.75
2019-05-30T17:33:21.535Z,9.43
2019-05-30T17:35:47.239Z,9.23
2019-05-30T17:38:13.928Z,8.45
2019-05-30T17:40:44.939Z,7.65
2019-05-30T17:43:09.391Z,8.58
2019-05-30T17:45:36.183Z,7.30
2019-05-30T17:48:15.966Z,10.30
2019-05-30T17:50:31.685Z,8.30
2019-05-30T17:52:59.483Z,7.87
2019-05-30T17:55:26.295Z,9.08
2019-05-30T17:57:53.046Z,11.78
2019-05-30T18:00:20.415Z,9.05
2019-05-30T18:02:47.395Z,9.73
2019-05-30T18:05:14.577Z,10.10
2019-05-30T18:07:41.415Z,9.03
2019-05-30T18:10:09.104Z,12.40
2019-05-30T18:12:35.910Z,11.08
2019-05-30T18:15:05.799Z,9.65
2019-05-30T18:17:32.559Z,8.90
2019-05-30T18:19:59.274Z,8.40
2019-05-30T18:22:25.988Z,8.35
2019-05-30T18:24:52.809Z,8.05
2019-05-30T18:27:19.607Z,6.30
2019-05-30T18:29:46.331Z,8.20
2019-05-30T18:32:13.150Z,7.70
2019-05-30T18:34:40.099Z,13.65
2019-05-30T18:37:06.828Z,12.00
2019-05-30T18:39:33.552Z,9.63
2019-05-30T18:42:00.236Z,9.95
2019-05-30T18:44:30.196Z,8.98
2019-05-30T18:46:56.683Z,8.85
2019-05-30T18:49:23.361Z,10.65
2019-05-30T18:51:50.070Z,8.03
2019-05-30T18:54:16.848Z,8.40
2019-05-30T18:56:43.608Z,10.28
2019-05-30T18:59:10.302Z,7.90
2019-05-30T19:01:37.930Z,10.03
2019-05-30T19:04:05.188Z,9.85
2019-05-30T19:06:32.405Z,9.10
2019-05-30T19:08:59.433Z,10.98
2019-05-30T19:11:29.632Z,8.55
2019-05-30T19:13:54.784Z,9.83
2019-05-30T19:16:21.467Z,7.70
2019-05-30T19:18:48.152Z,8.08
2019-05-30T19:21:14.897Z,7.80
2019-05-30T19:23:41.676Z,6.65
2019-05-30T19:26:08.392Z,7.75
2019-05-30T19:28:35.163Z,9.13
2019-05-30T19:31:01.865Z,6.70
2019-05-30T19:33:28.842Z,7.20
2019-05-30T19:35:55.846Z,7.60
2019-05-30T19:38:22.623Z,7.25
2019-05-30T19:40:49.319Z,5.95
2019-05-30T19:43:16.076Z,6.20
2019-05-30T19:45:43.696Z,6.45
2019-05-30T19:48:10.468Z,7.22
2019-05-30T19:50:37.227Z,7.05
2019-05-30T19:53:04.058Z,8.43
2019-05-30T19:55:33.141Z,9.15
2019-05-30T19:58:00.112Z,5.78
2019-05-30T20:00:27.002Z,6.22
2019-05-30T20:02:53.707Z,5.40
2019-05-30T20:05:20.616Z,6.62
2019-05-30T20:07:47.442Z,5.53
2019-05-30T20:10:15.477Z,6.97
2019-05-30T20:12:42.386Z,10.08
2019-05-30T20:15:10.205Z,7.08
2019-05-30T20:17:37.599Z,7.67
2019-05-30T20:20:06.327Z,6.15
2019-05-30T20:22:33.921Z,10.82
2019-05-30T20:25:00.758Z,6.42
2019-05-30T20:27:28.599Z,6.05
2019-05-30T20:29:55.308Z,6.33
2019-05-30T20:32:22.030Z,7.62
2019-05-30T20:34:48.925Z,7.83
2019-05-30T20:37:15.628Z,5.95
2019-05-30T20:39:42.911Z,6.75
2019-05-30T20:42:18.747Z,6.62
2019-05-30T20:44:38.877Z,8.35
2019-05-30T20:47:05.843Z,10.20
2019-05-30T20:49:32.703Z,6.70
2019-05-30T20:51:59.451Z,5.53
2019-05-30T20:54:26.197Z,5.78
2019-05-30T20:56:52.956Z,5.35
2019-05-30T20:59:19.666Z,6.30
2019-05-30T21:01:46.469Z,6.30
2019-05-30T21:04:13.365Z,7.28
2019-05-30T21:06:42.918Z,7.87
2019-05-30T21:09:25.439Z,7.33
2019-05-30T21:11:42.148Z,5.47
2019-05-30T21:14:09.077Z,6.97
2019-05-30T21:16:37.971Z,9.80
2019-05-30T21:19:04.962Z,6.97
2019-05-30T21:21:31.666Z,8.10
2019-05-30T21:23:58.413Z,9.50
2019-05-30T21:26:25.070Z,8.18
2019-05-30T21:28:51.832Z,10.28
2019-05-30T21:31:18.513Z,9.23
2019-05-30T21:33:46.108Z,7.30
2019-05-30T21:36:13.079Z,9.60
2019-05-30T21:38:39.963Z,8.33
2019-05-30T21:41:06.683Z,7.97
2019-05-30T21:43:33.511Z,7.55
2019-05-30T21:46:00.226Z,13.72
2019-05-30T21:48:26.928Z,8.73
2019-05-30T21:50:53.632Z,8.50
2019-05-30T21:53:20.354Z,10.05
2019-05-30T21:55:48.014Z,8.58
2019-05-30T21:58:14.756Z,8.00
2019-05-30T22:00:48.551Z,13.13
2019-05-30T22:03:16.319Z,11.30
2019-05-30T22:05:42.993Z,9.55
2019-05-30T22:08:09.767Z,7.90
2019-05-30T22:10:36.648Z,10.40
2019-05-30T22:13:09.603Z,11.65
2019-05-30T22:15:33.675Z,10.20
2019-05-30T22:18:00.355Z,8.03
2019-05-30T22:20:27.040Z,8.35
2019-05-30T22:22:53.789Z,11.05
2019-05-30T22:25:20.464Z,10.40
2019-05-30T22:27:48.210Z,11.12
2019-05-30T22:30:15.524Z,10.05
2019-05-30T22:32:42.665Z,12.35
2019-05-30T22:35:09.785Z,9.75
2019-05-30T22:37:36.600Z,11.85
2019-05-30T22:40:04.743Z,16.45
2019-05-30T22:42:31.896Z,10.90
2019-05-30T22:44:58.598Z,11.38
2019-05-30T22:47:25.406Z,9.50
2019-05-30T22:49:52.986Z,13.18
2019-05-30T22:52:19.906Z,15.78
2019-05-30T22:54:47.115Z,12.13
2019-05-30T22:57:15.121Z,13.05
2019-05-30T22:59:41.837Z,14.45
2019-05-30T23:02:08.525Z,13.32
2019-05-30T23:04:35.205Z,17.15
2019-05-30T23:07:01.954Z,15.35
2019-05-30T23:09:28.626Z,12.68
2019-05-30T23:11:56.002Z,14.85
2019-05-30T23:14:22.941Z,15.80
2019-05-30T23:16:50.254Z,15.40
2019-05-30T23:19:17.287Z,15.35
2019-05-30T23:21:44.305Z,12.00
2019-05-30T23:24:11.126Z,14.10
2019-05-30T23:26:37.852Z,14.80
2019-05-30T23:29:04.530Z,14.65
2019-05-30T23:31:31.283Z,16.27
2019-05-30T23:33:58.662Z,14.55
2019-05-30T23:36:25.483Z,13.13
2019-05-30T23:38:52.706Z,15.00
2019-05-30T23:41:19.680Z,15.43
2019-05-30T23:43:55.879Z,15.20
2019-05-30T23:46:15.108Z,16.62
2019-05-30T23:48:41.807Z,15.48
2019-05-30T23:51:08.568Z,16.55
2019-05-30T23:53:35.433Z,17.17
2019-05-30T23:56:02.102Z,16.48
2019-05-30T23:58:28.799Z,15.70
